createdAt,value
2018-03-07T00:00:13.364Z,-0.70
2018-03-07T00:02:39.891Z,-0.70
2018-03-07T00:05:07.238Z,-0.70
2018-03-07T00:07:37.017Z,-0.60
2018-03-07T00:10:03.652Z,-0.60
2018-03-07T00:12:31.120Z,-0.70
2018-03-07T00:14:57.673Z,-3.10
2018-03-07T00:17:24.342Z,-0.70
2018-03-07T00:19:51.282Z,-0.70
2018-03-07T00:22:17.823Z,-0.70
2018-03-07T00:24:45.130Z,-0.70
2018-03-07T00:27:12.478Z,-0.60
2018-03-07T00:29:38.990Z,-0.50
2018-03-07T00:32:05.821Z,-0.60
2018-03-07T00:34:33.076Z,-0.60
2018-03-07T00:37:01.167Z,-0.70
2018-03-07T00:39:28.485Z,-0.70
2018-03-07T00:41:55.188Z,-0.60
2018-03-07T00:44:21.681Z,-0.40
2018-03-07T00:46:49.061Z,-0.70
2018-03-07T00:49:15.633Z,-0.60
2018-03-07T00:51:42.187Z,-0.70
2018-03-07T00:54:08.711Z,-0.60
2018-03-07T00:56:36.040Z,-0.70
2018-03-07T00:59:03.385Z,-0.60
2018-03-07T01:01:30.643Z,-0.60
2018-03-07T01:03:57.347Z,-0.50
2018-03-07T01:06:24.624Z,-0.50
2018-03-07T01:08:53.545Z,-0.50
2018-03-07T01:11:20.206Z,-0.40
2018-03-07T01:13:46.779Z,-0.30
2018-03-07T01:16:13.316Z,-0.20
2018-03-07T01:18:39.896Z,-0.30
2018-03-07T01:21:06.467Z,-0.20
2018-03-07T01:23:34.133Z,-0.10
2018-03-07T01:26:01.993Z,0.00
2018-03-07T01:28:29.471Z,0.10
2018-03-07T01:30:56.210Z,0.20
2018-03-07T01:33:23.270Z,0.00
2018-03-07T01:35:49.817Z,0.10
2018-03-07T01:38:17.221Z,0.20
2018-03-07T01:40:43.943Z,0.30
2018-03-07T01:43:11.042Z,0.10
2018-03-07T01:45:37.830Z,0.20
2018-03-07T01:48:04.706Z,0.60
2018-03-07T01:50:31.713Z,0.20
2018-03-07T01:52:58.266Z,0.20
2018-03-07T01:55:25.054Z,0.30
2018-03-07T01:57:51.663Z,0.20
2018-03-07T02:00:19.151Z,0.30
2018-03-07T02:02:45.817Z,0.40
2018-03-07T02:05:12.438Z,0.50
2018-03-07T02:07:41.634Z,0.60
2018-03-07T02:10:09.915Z,0.60
2018-03-07T02:12:36.473Z,0.70
2018-03-07T02:15:03.081Z,0.70
2018-03-07T02:17:30.112Z,0.70
2018-03-07T02:19:56.700Z,0.70
2018-03-07T02:22:24.110Z,0.60
2018-03-07T02:24:50.891Z,0.60
2018-03-07T02:27:17.498Z,0.60
2018-03-07T02:29:44.130Z,0.50
2018-03-07T02:32:11.481Z,0.60
2018-03-07T02:34:38.815Z,0.60
2018-03-07T02:37:05.493Z,0.60
2018-03-07T02:39:32.432Z,0.60
2018-03-07T02:41:59.026Z,0.60
2018-03-07T02:44:25.607Z,0.60
2018-03-07T02:46:52.315Z,0.60
2018-03-07T02:49:19.551Z,0.60
2018-03-07T02:51:46.875Z,0.60
2018-03-07T02:54:15.016Z,0.60
2018-03-07T02:56:41.595Z,0.60
2018-03-07T02:59:08.179Z,0.60
2018-03-07T03:01:34.956Z,0.70
2018-03-07T03:04:01.603Z,0.70
2018-03-07T03:06:28.586Z,0.60
2018-03-07T03:08:56.702Z,0.60
2018-03-07T03:11:24.044Z,0.50
2018-03-07T03:13:50.973Z,0.50
2018-03-07T03:16:18.064Z,0.60
2018-03-07T03:18:44.936Z,0.40
2018-03-07T03:21:12.271Z,0.40
2018-03-07T03:26:07.252Z,0.30
2018-03-07T03:28:34.109Z,0.40
2018-03-07T03:31:01.025Z,0.30
2018-03-07T03:33:27.616Z,0.30
2018-03-07T03:35:54.262Z,0.30
2018-03-07T03:38:21.665Z,0.30
2018-03-07T03:40:48.991Z,0.40
2018-03-07T03:43:16.404Z,0.50
2018-03-07T03:45:44.255Z,0.50
2018-03-07T03:48:11.256Z,0.30
2018-03-07T03:50:39.310Z,0.50
2018-03-07T03:53:06.344Z,0.50
2018-03-07T03:55:33.154Z,0.40
2018-03-07T03:57:59.682Z,0.30
2018-03-07T04:00:28.009Z,0.40
2018-03-07T04:02:56.002Z,0.40
2018-03-07T04:05:22.561Z,0.70
2018-03-07T04:07:50.814Z,0.40
2018-03-07T04:10:19.018Z,0.50
2018-03-07T04:12:47.533Z,0.60
2018-03-07T04:15:14.775Z,0.60
2018-03-07T04:17:42.441Z,0.50
2018-03-07T04:20:09.434Z,0.60
2018-03-07T04:22:36.487Z,0.50
2018-03-07T04:25:03.050Z,0.50
2018-03-07T04:27:29.641Z,0.50
2018-03-07T04:32:25.179Z,0.50
2018-03-07T04:34:52.330Z,1.10
2018-03-07T04:37:19.839Z,0.50
2018-03-07T04:39:46.731Z,0.60
2018-03-07T04:42:14.073Z,0.50
2018-03-07T04:44:48.363Z,0.50
2018-03-07T04:47:14.976Z,0.50
2018-03-07T04:49:41.628Z,0.50
2018-03-07T04:52:08.385Z,0.60
2018-03-07T04:54:34.990Z,0.50
2018-03-07T04:57:02.285Z,0.40
2018-03-07T04:59:28.959Z,0.30
2018-03-07T05:01:56.278Z,0.50
2018-03-07T05:04:22.802Z,0.50
2018-03-07T05:06:49.719Z,0.30
2018-03-07T05:09:16.340Z,0.50
2018-03-07T05:11:42.914Z,0.50
2018-03-07T05:14:11.053Z,0.50
2018-03-07T05:16:37.796Z,0.50
2018-03-07T05:21:32.949Z,0.40
2018-03-07T05:23:59.612Z,0.40
2018-03-07T05:26:26.554Z,0.50
2018-03-07T05:31:26.639Z,0.60
2018-03-07T05:36:21.838Z,0.50
2018-03-07T05:38:48.507Z,0.30
2018-03-07T05:41:15.136Z,0.50
2018-03-07T05:46:10.180Z,0.60
2018-03-07T05:48:36.904Z,0.60
2018-03-07T05:51:03.501Z,0.60
2018-03-07T05:53:30.521Z,0.50
2018-03-07T05:55:57.824Z,0.50
2018-03-07T06:00:54.022Z,0.70
2018-03-07T06:03:20.909Z,0.60
2018-03-07T06:05:47.937Z,0.60
2018-03-07T06:08:14.822Z,0.70
2018-03-07T06:15:39.089Z,0.70
2018-03-07T06:18:06.610Z,0.80
2018-03-07T06:20:34.861Z,0.80
2018-03-07T06:28:00.261Z,0.80
2018-03-07T06:35:23.321Z,0.90
2018-03-07T06:37:50.638Z,1.00
2018-03-07T06:40:18.611Z,1.00
2018-03-07T06:45:13.621Z,0.90
2018-03-07T06:47:41.218Z,1.00
2018-03-07T06:50:07.804Z,1.10
2018-03-07T06:52:34.369Z,1.20
2018-03-07T06:55:01.144Z,1.10
2018-03-07T06:57:28.459Z,1.20
2018-03-07T06:59:55.054Z,1.30
2018-03-07T07:02:21.619Z,1.40
2018-03-07T07:04:48.199Z,1.00
2018-03-07T07:07:15.593Z,1.40
2018-03-07T07:09:42.398Z,1.40
2018-03-07T07:12:09.763Z,1.50
2018-03-07T07:14:36.998Z,1.50
2018-03-07T07:17:04.722Z,1.60
2018-03-07T07:19:32.382Z,1.60
2018-03-07T07:24:28.644Z,1.60
2018-03-07T07:26:55.179Z,1.70
2018-03-07T07:29:21.884Z,1.70
2018-03-07T07:31:48.505Z,1.80
2018-03-07T07:34:15.853Z,1.80
2018-03-07T07:36:42.437Z,1.80
2018-03-07T07:41:37.212Z,1.80
2018-03-07T07:46:32.712Z,1.90
2018-03-07T07:49:00.358Z,1.80
2018-03-07T07:51:27.332Z,1.80
2018-03-07T07:53:54.033Z,1.70
2018-03-07T07:56:20.811Z,1.80
2018-03-07T08:01:16.860Z,1.90
2018-03-07T08:03:45.288Z,2.10
2018-03-07T08:08:40.657Z,2.20
2018-03-07T08:11:08.009Z,2.20
2018-03-07T08:13:35.354Z,2.20
2018-03-07T08:16:02.423Z,2.20
2018-03-07T08:18:29.450Z,2.20
2018-03-07T08:20:56.056Z,2.30
2018-03-07T08:23:23.084Z,2.20
2018-03-07T08:25:50.079Z,2.20
2018-03-07T08:28:18.059Z,2.20
2018-03-07T08:30:47.310Z,2.30
2018-03-07T08:35:42.070Z,2.40
2018-03-07T08:38:08.998Z,2.60
2018-03-07T08:40:35.918Z,2.70
2018-03-07T08:43:03.527Z,2.70
2018-03-07T08:45:30.666Z,2.70
2018-03-07T08:47:58.399Z,2.70
2018-03-07T08:50:24.915Z,3.00
2018-03-07T08:52:52.011Z,2.90
2018-03-07T08:55:20.116Z,2.90
2018-03-07T08:57:48.003Z,2.90
2018-03-07T09:00:14.999Z,3.20
2018-03-07T09:02:41.686Z,3.10
2018-03-07T09:05:08.270Z,3.10
2018-03-07T09:07:35.232Z,3.10
2018-03-07T09:12:31.615Z,2.90
2018-03-07T09:17:26.946Z,2.80
2018-03-07T09:19:53.589Z,2.80
2018-03-07T09:22:20.560Z,2.80
2018-03-07T09:24:47.070Z,2.70
2018-03-07T09:27:13.922Z,2.80
2018-03-07T09:29:40.556Z,2.90
2018-03-07T09:32:07.050Z,2.80
2018-03-07T09:34:33.990Z,2.90
2018-03-07T09:37:01.341Z,3.00
2018-03-07T09:39:27.923Z,3.00
2018-03-07T09:41:54.776Z,3.10
2018-03-07T09:44:21.606Z,3.10
2018-03-07T09:46:48.470Z,3.10
2018-03-07T09:49:15.871Z,3.20
2018-03-07T09:51:42.809Z,3.20
2018-03-07T09:59:07.830Z,3.10
2018-03-07T10:06:33.864Z,3.10
2018-03-07T10:09:01.269Z,3.10
2018-03-07T10:11:29.503Z,3.10
2018-03-07T10:13:57.338Z,3.10
2018-03-07T10:18:52.543Z,3.10
2018-03-07T10:21:21.864Z,3.10
2018-03-07T10:26:17.986Z,3.10
2018-03-07T10:28:44.993Z,3.00
2018-03-07T10:31:11.788Z,3.00
2018-03-07T10:33:39.873Z,3.10
2018-03-07T10:36:08.032Z,3.00
2018-03-07T10:38:35.250Z,3.10
2018-03-07T10:41:02.027Z,3.20
2018-03-07T10:43:30.145Z,3.50
2018-03-07T10:45:57.507Z,3.60
2018-03-07T10:48:24.541Z,3.60
2018-03-07T10:53:20.400Z,3.90
2018-03-07T10:55:47.268Z,4.00
2018-03-07T10:58:14.891Z,3.90
2018-03-07T11:00:41.827Z,3.90
2018-03-07T11:03:08.573Z,3.80
2018-03-07T11:08:04.866Z,3.70
2018-03-07T11:10:32.057Z,3.40
2018-03-07T11:12:59.486Z,3.50
2018-03-07T11:17:56.910Z,3.70
2018-03-07T11:20:24.247Z,3.60
2018-03-07T11:22:52.983Z,3.40
2018-03-07T11:25:23.001Z,3.30
2018-03-07T11:32:47.797Z,3.20
2018-03-07T11:35:14.484Z,3.20
2018-03-07T11:37:42.763Z,3.20
2018-03-07T11:40:09.835Z,3.10
2018-03-07T11:42:36.934Z,2.90
2018-03-07T11:50:00.546Z,3.40
2018-03-07T11:52:28.011Z,3.40
2018-03-07T11:54:54.543Z,3.20
2018-03-07T11:57:21.941Z,3.20
2018-03-07T11:59:49.405Z,3.20
2018-03-07T12:02:17.171Z,3.10
2018-03-07T12:04:45.202Z,3.10
2018-03-07T12:07:11.831Z,3.10
2018-03-07T12:09:38.343Z,2.90
2018-03-07T12:12:05.907Z,2.90
2018-03-07T12:14:33.116Z,2.80
2018-03-07T12:16:59.730Z,2.90
2018-03-07T12:19:26.667Z,2.80
2018-03-07T12:24:21.411Z,2.80
2018-03-07T12:26:51.819Z,2.80
2018-03-07T12:29:18.884Z,2.70
2018-03-07T12:34:15.234Z,2.70
2018-03-07T12:36:41.696Z,2.70
2018-03-07T12:39:08.113Z,2.80
2018-03-07T12:41:37.034Z,2.70
2018-03-07T12:44:04.294Z,2.70
2018-03-07T12:46:31.419Z,2.70
2018-03-07T12:53:55.545Z,2.90
2018-03-07T12:56:22.152Z,2.80
2018-03-07T13:01:17.009Z,2.80
2018-03-07T13:03:44.358Z,2.80
2018-03-07T13:06:11.226Z,2.80
2018-03-07T13:08:37.841Z,2.90
2018-03-07T13:11:05.683Z,3.00
2018-03-07T13:13:32.884Z,3.00
2018-03-07T13:15:59.421Z,3.20
2018-03-07T13:20:54.792Z,3.20
2018-03-07T13:23:21.985Z,3.10
2018-03-07T13:25:49.975Z,3.10
2018-03-07T13:28:16.452Z,3.10
2018-03-07T13:30:42.989Z,3.00
2018-03-07T13:33:09.501Z,3.10
2018-03-07T13:35:37.630Z,3.20
2018-03-07T13:38:04.066Z,3.20
2018-03-07T13:40:30.630Z,3.10
2018-03-07T13:42:57.101Z,3.00
2018-03-07T13:45:25.154Z,3.00
2018-03-07T13:47:53.158Z,3.00
2018-03-07T13:52:48.113Z,2.90
2018-03-07T13:55:15.559Z,2.90
2018-03-07T13:57:43.670Z,3.00
2018-03-07T14:00:10.297Z,2.80
2018-03-07T14:02:37.464Z,2.90
2018-03-07T14:05:04.104Z,2.80
2018-03-07T14:07:31.643Z,2.80
2018-03-07T14:12:26.419Z,2.60
2018-03-07T14:14:53.740Z,2.40
2018-03-07T14:19:55.374Z,2.60
2018-03-07T14:22:22.875Z,2.30
2018-03-07T14:27:19.673Z,2.50
2018-03-07T14:29:47.705Z,2.50
2018-03-07T14:32:14.690Z,2.60
2018-03-07T14:34:41.571Z,2.40
2018-03-07T14:37:09.246Z,2.40
2018-03-07T14:42:12.577Z,2.30
2018-03-07T14:44:39.413Z,2.20
2018-03-07T14:49:37.431Z,2.10
2018-03-07T14:52:04.506Z,2.00
2018-03-07T14:54:32.850Z,2.00
2018-03-07T14:56:59.455Z,2.00
2018-03-07T14:59:26.019Z,2.00
2018-03-07T15:01:54.384Z,2.00
2018-03-07T15:04:21.349Z,2.10
2018-03-07T15:06:48.646Z,2.10
2018-03-07T15:09:16.828Z,1.90
2018-03-07T15:14:12.906Z,2.00
2018-03-07T15:16:40.624Z,1.90
2018-03-07T15:21:35.680Z,1.80
2018-03-07T15:24:02.697Z,1.80
2018-03-07T15:26:30.167Z,1.70
2018-03-07T15:28:57.741Z,1.70
2018-03-07T15:31:25.341Z,1.70
2018-03-07T15:33:52.044Z,1.60
2018-03-07T15:36:19.617Z,1.60
2018-03-07T15:38:47.166Z,1.60
2018-03-07T15:41:14.957Z,1.60
2018-03-07T15:43:43.349Z,1.70
2018-03-07T15:46:10.402Z,1.60
2018-03-07T15:48:38.073Z,1.70
2018-03-07T15:51:05.018Z,1.50
2018-03-07T15:53:32.456Z,1.50
2018-03-07T15:56:00.861Z,1.50
2018-03-07T15:58:28.140Z,1.70
2018-03-07T16:00:55.964Z,1.40
2018-03-07T16:03:23.744Z,1.50
2018-03-07T16:05:50.659Z,1.40
2018-03-07T16:10:46.361Z,0.80
2018-03-07T16:13:12.882Z,1.30
2018-03-07T16:15:40.069Z,1.20
2018-03-07T16:18:07.276Z,1.20
2018-03-07T16:20:33.950Z,1.20
2018-03-07T16:23:00.462Z,1.10
2018-03-07T16:25:29.120Z,1.10
2018-03-07T16:27:58.724Z,1.00
2018-03-07T16:30:27.625Z,1.00
2018-03-07T16:32:55.388Z,1.00
2018-03-07T16:35:21.992Z,1.00
2018-03-07T16:37:48.895Z,0.80
2018-03-07T16:40:15.561Z,0.90
2018-03-07T16:42:43.323Z,1.00
2018-03-07T16:47:38.072Z,0.90
2018-03-07T16:50:08.944Z,0.90
2018-03-07T16:52:43.738Z,0.90
2018-03-07T16:55:10.602Z,0.00
2018-03-07T16:57:37.149Z,0.90
2018-03-07T17:00:04.833Z,0.80
2018-03-07T17:02:33.272Z,0.90
2018-03-07T17:05:00.602Z,0.80
2018-03-07T17:09:56.601Z,0.80
2018-03-07T17:12:23.063Z,0.80
2018-03-07T17:14:50.684Z,0.80
2018-03-07T17:17:17.526Z,0.80
2018-03-07T17:19:43.991Z,0.90
2018-03-07T17:22:10.565Z,0.90
2018-03-07T17:24:38.715Z,0.90
2018-03-07T17:29:41.513Z,0.80
2018-03-07T17:32:08.284Z,0.90
2018-03-07T17:34:35.473Z,0.90
2018-03-07T17:37:02.510Z,0.80
2018-03-07T17:39:29.037Z,1.30
2018-03-07T17:41:57.122Z,0.90
2018-03-07T17:44:24.182Z,0.90
2018-03-07T17:46:50.770Z,0.90
2018-03-07T17:49:17.384Z,0.80
2018-03-07T17:51:48.211Z,0.90
2018-03-07T17:54:14.688Z,0.80
2018-03-07T17:56:41.847Z,0.70
2018-03-07T17:59:08.382Z,1.10
2018-03-07T18:01:35.976Z,0.70
2018-03-07T18:04:02.778Z,0.60
2018-03-07T18:06:29.483Z,0.60
2018-03-07T18:08:56.010Z,0.60
2018-03-07T18:11:24.007Z,0.70
2018-03-07T18:13:51.122Z,0.70
2018-03-07T18:16:18.804Z,0.70
2018-03-07T18:18:46.880Z,0.70
2018-03-07T18:21:14.214Z,0.60
2018-03-07T18:23:42.230Z,0.70
2018-03-07T18:26:09.918Z,0.50
2018-03-07T18:28:39.152Z,0.70
2018-03-07T18:33:34.443Z,0.80
2018-03-07T18:36:01.175Z,0.70
2018-03-07T18:38:27.638Z,0.80
2018-03-07T18:43:23.916Z,0.60
2018-03-07T18:45:50.421Z,0.70
2018-03-07T18:48:17.793Z,0.70
2018-03-07T18:50:44.729Z,0.70
2018-03-07T18:53:11.229Z,0.70
2018-03-07T18:55:37.698Z,0.80
2018-03-07T18:58:04.432Z,0.80
2018-03-07T19:00:30.965Z,0.70
2018-03-07T19:02:57.608Z,0.80
2018-03-07T19:05:25.349Z,0.80
2018-03-07T19:07:53.562Z,0.80
2018-03-07T19:10:20.412Z,0.90
2018-03-07T19:12:47.197Z,0.50
2018-03-07T19:15:14.072Z,1.00
2018-03-07T19:17:41.470Z,0.80
2018-03-07T19:20:08.186Z,0.90
2018-03-07T19:22:35.138Z,0.90
2018-03-07T19:25:01.724Z,0.90
2018-03-07T19:27:28.999Z,0.80
2018-03-07T19:29:55.776Z,0.80
2018-03-07T19:32:22.911Z,1.00
2018-03-07T19:39:47.349Z,0.80
2018-03-07T19:42:14.239Z,0.90
2018-03-07T19:44:41.767Z,0.80
2018-03-07T19:47:08.374Z,0.80
2018-03-07T19:52:03.816Z,0.80
2018-03-07T19:54:31.583Z,1.10
2018-03-07T19:56:58.178Z,0.70
2018-03-07T19:59:25.161Z,0.80
2018-03-07T20:01:51.714Z,0.80
2018-03-07T20:04:18.561Z,0.90
2018-03-07T20:06:45.040Z,1.00
2018-03-07T20:09:12.037Z,0.80
2018-03-07T20:11:38.609Z,1.00
2018-03-07T20:14:05.308Z,1.00
2018-03-07T20:16:31.799Z,1.00
2018-03-07T20:18:58.501Z,1.00
2018-03-07T20:21:25.029Z,0.90
2018-03-07T20:23:51.894Z,0.90
2018-03-07T20:26:19.386Z,0.90
2018-03-07T20:28:46.601Z,0.90
2018-03-07T20:31:13.603Z,0.90
2018-03-07T20:33:40.929Z,0.80
2018-03-07T20:36:10.329Z,0.80
2018-03-07T20:38:36.872Z,0.80
2018-03-07T20:41:04.976Z,0.80
2018-03-07T20:43:31.857Z,0.60
2018-03-07T20:45:58.360Z,0.90
2018-03-07T20:48:25.001Z,0.70
2018-03-07T20:50:51.509Z,0.80
2018-03-07T20:53:18.774Z,0.80
2018-03-07T20:55:45.280Z,0.50
2018-03-07T20:58:12.485Z,0.80
2018-03-07T21:00:39.020Z,0.80
2018-03-07T21:03:07.195Z,0.90
2018-03-07T21:05:35.160Z,0.80
2018-03-07T21:08:01.725Z,0.90
2018-03-07T21:12:57.870Z,0.90
2018-03-07T21:15:25.222Z,0.90
2018-03-07T21:17:53.414Z,0.90
2018-03-07T21:20:19.890Z,0.90
2018-03-07T21:22:47.490Z,0.70
2018-03-07T21:25:14.792Z,0.80
2018-03-07T21:27:41.675Z,0.80
2018-03-07T21:30:08.242Z,0.90
2018-03-07T21:32:35.976Z,0.90
2018-03-07T21:35:02.510Z,0.90
2018-03-07T21:37:29.949Z,0.70
2018-03-07T21:39:56.580Z,1.00
2018-03-07T21:42:23.286Z,0.80
2018-03-07T21:44:49.899Z,0.80
2018-03-07T21:47:16.746Z,0.60
2018-03-07T21:49:43.298Z,0.80
2018-03-07T21:52:11.461Z,0.80
2018-03-07T21:54:38.077Z,0.90
2018-03-07T21:57:04.514Z,0.80
2018-03-07T21:59:30.995Z,0.70
2018-03-07T22:01:57.541Z,0.80
2018-03-07T22:04:24.067Z,0.80
2018-03-07T22:06:50.606Z,0.80
2018-03-07T22:09:17.509Z,1.00
2018-03-07T22:11:43.982Z,0.80
2018-03-07T22:14:10.478Z,0.80
2018-03-07T22:16:37.708Z,0.70
2018-03-07T22:19:04.241Z,0.80
2018-03-07T22:21:31.860Z,0.80
2018-03-07T22:23:58.509Z,0.70
2018-03-07T22:26:25.145Z,0.40
2018-03-07T22:28:51.794Z,0.80
2018-03-07T22:31:18.394Z,0.70
2018-03-07T22:33:44.965Z,0.80
2018-03-07T22:36:11.826Z,0.80
2018-03-07T22:38:38.455Z,0.80
2018-03-07T22:41:05.282Z,0.70
2018-03-07T22:43:31.802Z,0.70
2018-03-07T22:45:58.361Z,0.70
2018-03-07T22:48:24.808Z,0.70
2018-03-07T22:50:51.358Z,0.80
2018-03-07T22:53:18.792Z,0.70
2018-03-07T22:55:45.307Z,0.80
2018-03-07T22:58:11.798Z,0.70
2018-03-07T23:00:44.224Z,0.70
2018-03-07T23:03:11.493Z,0.50
2018-03-07T23:05:37.931Z,0.80
2018-03-07T23:08:04.439Z,0.80
2018-03-07T23:10:31.380Z,0.80
2018-03-07T23:12:58.741Z,0.80
2018-03-07T23:15:25.869Z,0.80
2018-03-07T23:17:53.124Z,0.80
2018-03-07T23:20:19.598Z,0.80
2018-03-07T23:22:46.134Z,0.90
2018-03-07T23:25:12.657Z,0.70
2018-03-07T23:27:39.286Z,0.70
2018-03-07T23:30:06.866Z,0.70
2018-03-07T23:32:33.399Z,0.80
2018-03-07T23:34:59.929Z,0.80
2018-03-07T23:37:26.537Z,0.80
2018-03-07T23:39:53.340Z,0.80
2018-03-07T23:42:19.895Z,0.80
2018-03-07T23:44:46.473Z,0.80
2018-03-07T23:47:13.097Z,0.70
2018-03-07T23:49:39.611Z,0.70
2018-03-07T23:52:06.682Z,0.60
2018-03-07T23:54:33.210Z,0.70
2018-03-07T23:57:00.850Z,0.60
2018-03-07T23:59:28.759Z,0.70
